Airfield :
LOGIN :

Register | Disclaimer

   EN    FR    IT 

 










Legend :    VFR   Marginal VFR   IFR   Intensive IFR   Very Intensive IFR
Visi :
Ceiling :
>= 8 km
>= 3000ft
5 to 8 km
1000 to 3000 ft
1500m to 5 km
500 to 1000 ft
800 to 1500m
200 to 500 ft
< 800m
< 200 ft
Symbols :   Thunderstorms  Fog  Heavy snow  Heavy precipitations  Wind > 20 kt
SIGMETs :     Misc.  Thunderstorms  Icing  Turbulence  Mountain Waves  Volcanic Ashes







- Airport Elevation : 622 ft
- IATA code : BRS
- Download approach charts


EGGD - Bristol Int.

CURRENT METAR :
  • 190020Z AUTO 23009KT 9999 FEW025 BKN031 06/03 Q1016

EXPIRED METARs :
  • 182350Z AUTO 24010KT 9999 OVC030 06/03 Q1016
  • 182320Z AUTO 22010KT 9999 FEW014 OVC025 06/03 Q1016
  • 182250Z AUTO 24010KT 9999 SCT012 BKN016 OVC022 06/03 Q1016
  • 182220Z AUTO 24009KT 9999 SCT017 SCT026 05/03 Q1016
  • 182150Z AUTO 23009KT 9999 BKN015 BKN019 06/03 Q1016
  • 182120Z AUTO 24010KT 9999 BKN015 BKN021 06/03 Q1016

TAF TAF EGGD
Valid from the 19 at 00:00 until the 20 at 00:00 UTC


182307Z 1900/1924 24009KT 9999 SCT020
PROB30
TEMPO 1900/1909 4000 BR BKN005
PROB30
TEMPO 1920/1924 20015G25KT
ATIS : +44 1275 473 666
No reported NOTAMs for that airfield.



MET'MAP, your aeronautical weather chart ! - Copyright ORBIFLY December 2007 - Disclaimer

ORBIFLY MET'MAP TEAM :

Programming & Development : Alexandra Zaïnal
Concept & Development : Baudouin d'Aumeries
Co-Development & Prog : Marc-Olivier Méhu
Technical & hardware support : Manuel Goepfert

Contact : metmap@orbifly.com




SOURCES & CREDITS :

   NOAA